createdAt,value
2022-10-26T00:02:45.550Z,13.03
2022-10-26T00:06:47.216Z,12.94
2022-10-26T00:10:49.112Z,12.99
2022-10-26T00:14:50.734Z,13.00
2022-10-26T00:18:52.766Z,13.11
2022-10-26T00:22:54.603Z,13.20
2022-10-26T00:26:56.384Z,13.18
2022-10-26T00:31:07.454Z,13.22
2022-10-26T00:35:21.301Z,13.28
2022-10-26T00:39:25.903Z,13.23
2022-10-26T00:43:27.659Z,13.18
2022-10-26T00:47:46.730Z,13.11
2022-10-26T00:51:52.060Z,12.92
2022-10-26T00:55:54.348Z,12.96
2022-10-26T00:59:58.073Z,13.10
2022-10-26T01:04:00.718Z,13.12
2022-10-26T01:08:03.379Z,13.26
2022-10-26T01:12:05.458Z,13.33
2022-10-26T01:16:26.611Z,13.44
2022-10-26T01:20:44.047Z,13.30
2022-10-26T01:24:55.114Z,13.24
2022-10-26T01:29:49.562Z,13.24
2022-10-26T01:34:04.572Z,13.26
2022-10-26T01:38:14.576Z,13.29
2022-10-26T01:42:18.325Z,13.36
2022-10-26T01:46:23.910Z,13.28
2022-10-26T01:50:26.857Z,13.40
2022-10-26T01:54:29.350Z,13.38
2022-10-26T01:59:07.207Z,13.26
2022-10-26T02:03:38.853Z,13.19
2022-10-26T02:08:26.209Z,13.12
2022-10-26T02:12:38.669Z,13.07
2022-10-26T02:16:56.204Z,12.96
2022-10-26T02:21:13.988Z,13.03
2022-10-26T02:25:20.519Z,12.88
2022-10-26T02:29:25.171Z,12.84
2022-10-26T02:33:30.529Z,12.73
2022-10-26T02:37:34.460Z,12.82
2022-10-26T02:41:39.839Z,12.84
2022-10-26T02:45:46.660Z,12.88
2022-10-26T02:49:48.556Z,13.00
2022-10-26T02:53:58.144Z,13.02
2022-10-26T02:58:06.596Z,13.10
2022-10-26T03:02:08.728Z,13.16
2022-10-26T03:06:10.665Z,13.17
2022-10-26T03:10:12.295Z,13.03
2022-10-26T03:14:14.213Z,12.80
2022-10-26T03:18:17.021Z,12.97
2022-10-26T03:22:19.073Z,13.12
2022-10-26T03:26:20.674Z,13.10
2022-10-26T03:30:22.561Z,12.95
2022-10-26T03:34:24.262Z,13.07
2022-10-26T03:38:26.134Z,13.05
2022-10-26T03:42:28.027Z,13.12
2022-10-26T03:46:29.789Z,13.04
2022-10-26T03:50:31.439Z,12.92
2022-10-26T03:54:33.482Z,12.97
2022-10-26T03:58:35.088Z,12.87
2022-10-26T04:02:36.999Z,12.89
2022-10-26T04:06:38.689Z,13.01
2022-10-26T04:10:40.536Z,12.86
2022-10-26T04:14:42.297Z,12.83
2022-10-26T04:18:44.399Z,12.98
2022-10-26T04:22:46.037Z,12.95
2022-10-26T04:26:47.847Z,13.05
2022-10-26T04:30:49.546Z,12.93
2022-10-26T04:34:54.219Z,12.85
2022-10-26T04:38:55.866Z,12.92
2022-10-26T04:42:58.099Z,13.02
2022-10-26T04:46:59.731Z,12.84
2022-10-26T04:51:01.722Z,12.82
2022-10-26T04:55:06.123Z,12.76
2022-10-26T04:59:08.023Z,12.75
2022-10-26T05:03:09.755Z,12.68
2022-10-26T05:07:11.567Z,12.87
2022-10-26T05:11:13.282Z,12.83
2022-10-26T05:15:15.271Z,12.66
2022-10-26T05:19:17.162Z,12.58
2022-10-26T05:23:19.119Z,12.73
2022-10-26T05:27:20.861Z,12.68
2022-10-26T05:31:22.788Z,12.71
2022-10-26T05:35:25.911Z,12.63
2022-10-26T05:39:27.750Z,12.66
2022-10-26T05:43:30.336Z,12.60
2022-10-26T05:47:32.196Z,12.66
2022-10-26T05:51:37.325Z,12.78
2022-10-26T05:55:39.809Z,12.88
2022-10-26T05:59:41.739Z,12.83
2022-10-26T06:03:51.496Z,12.75
2022-10-26T06:07:53.646Z,12.84
2022-10-26T06:11:55.849Z,12.97
2022-10-26T06:16:25.303Z,12.86
2022-10-26T06:20:39.895Z,12.91
2022-10-26T06:24:56.117Z,13.01
2022-10-26T06:29:12.913Z,12.80
2022-10-26T06:33:28.962Z,13.15
2022-10-26T06:37:32.282Z,13.09
2022-10-26T06:41:35.614Z,13.08
2022-10-26T06:45:39.170Z,13.05
2022-10-26T06:49:53.601Z,12.99
2022-10-26T06:54:14.111Z,12.98
2022-10-26T06:58:20.891Z,13.01
2022-10-26T07:02:23.277Z,13.21
2022-10-26T07:06:25.460Z,13.13
2022-10-26T07:10:27.398Z,13.03
2022-10-26T07:14:29.049Z,13.21
2022-10-26T07:18:30.959Z,13.11
2022-10-26T07:22:33.617Z,13.24
2022-10-26T07:26:35.513Z,13.22
2022-10-26T07:30:39.357Z,13.41
2022-10-26T07:34:41.444Z,13.29
2022-10-26T07:38:43.065Z,13.55
2022-10-26T07:42:47.663Z,13.48
2022-10-26T07:46:49.854Z,13.85
2022-10-26T07:50:51.863Z,13.58
2022-10-26T07:54:53.582Z,13.53
2022-10-26T07:58:55.753Z,13.73
2022-10-26T08:16:57.710Z,12.83
2022-10-26T08:21:11.475Z,12.82
2022-10-26T08:25:17.555Z,12.57
2022-10-26T08:29:22.373Z,12.62
2022-10-26T08:33:24.892Z,12.72
2022-10-26T08:37:27.422Z,12.93
2022-10-26T08:41:36.377Z,12.77
2022-10-26T08:46:22.052Z,12.59
2022-10-26T08:50:41.998Z,12.75
2022-10-26T08:54:53.036Z,12.74
2022-10-26T08:59:03.244Z,12.45
2022-10-26T09:03:13.236Z,12.27
2022-10-26T09:07:34.624Z,12.39
2022-10-26T09:11:48.462Z,12.60
2022-10-26T09:16:12.068Z,12.65
2022-10-26T09:20:38.497Z,12.54
2022-10-26T09:24:52.284Z,12.63
2022-10-26T09:28:56.213Z,12.75
2022-10-26T09:33:02.426Z,12.84
2022-10-26T09:37:16.837Z,12.82
2022-10-26T09:41:40.283Z,13.05
2022-10-26T09:45:47.242Z,12.84
2022-10-26T09:49:54.612Z,12.86
2022-10-26T09:53:57.891Z,13.04
2022-10-26T09:58:03.901Z,13.20
2022-10-26T10:02:39.997Z,13.22
2022-10-26T10:06:47.043Z,13.20
2022-10-26T10:10:56.069Z,13.19
2022-10-26T10:14:59.569Z,13.47
2022-10-26T10:19:01.739Z,13.41
2022-10-26T10:23:04.808Z,13.75
2022-10-26T10:27:18.498Z,13.38
2022-10-26T10:31:26.895Z,13.35
2022-10-26T10:35:29.864Z,13.72
2022-10-26T10:39:40.835Z,13.71
2022-10-26T10:43:47.097Z,13.80
2022-10-26T10:48:05.655Z,13.83
2022-10-26T10:52:07.334Z,14.08
2022-10-26T10:56:27.851Z,14.00
2022-10-26T11:00:34.377Z,14.09
2022-10-26T11:05:27.143Z,14.18
2022-10-26T11:09:33.425Z,14.29
2022-10-26T11:13:44.329Z,13.98
2022-10-26T11:18:07.520Z,14.02
2022-10-26T11:22:22.473Z,14.10
2022-10-26T11:26:35.433Z,14.11
2022-10-26T11:30:43.581Z,14.29
2022-10-26T11:35:00.151Z,14.32
2022-10-26T11:39:14.638Z,14.19
2022-10-26T11:43:25.239Z,14.26
2022-10-26T11:47:39.791Z,14.05
2022-10-26T11:51:46.740Z,14.04
2022-10-26T11:55:54.552Z,13.70
2022-10-26T12:00:09.349Z,13.83
2022-10-26T12:04:11.842Z,13.81
2022-10-26T12:08:24.266Z,13.82
2022-10-26T12:12:37.482Z,13.85
2022-10-26T12:17:11.636Z,13.63
2022-10-26T12:21:15.106Z,13.67
2022-10-26T12:25:16.753Z,13.91
2022-10-26T12:29:27.886Z,13.79
2022-10-26T12:33:30.703Z,13.96
2022-10-26T12:37:37.318Z,13.96
2022-10-26T12:41:39.307Z,13.96
2022-10-26T12:45:43.000Z,14.01
2022-10-26T12:50:07.850Z,14.12
2022-10-26T12:54:41.832Z,14.16
2022-10-26T12:59:05.183Z,13.80
2022-10-26T13:03:32.802Z,13.91
2022-10-26T13:07:41.367Z,13.75
2022-10-26T13:11:46.152Z,13.81
2022-10-26T13:15:56.717Z,13.72
2022-10-26T13:20:02.396Z,13.70
2022-10-26T13:24:08.330Z,13.69
2022-10-26T13:28:53.741Z,13.65
2022-10-26T13:32:56.646Z,13.65
2022-10-26T13:37:05.322Z,13.71
2022-10-26T13:41:12.183Z,13.65
2022-10-26T13:45:18.565Z,13.70
2022-10-26T13:49:35.631Z,13.74
2022-10-26T13:53:54.246Z,13.87
2022-10-26T13:58:21.687Z,13.75
2022-10-26T14:02:28.185Z,13.86
2022-10-26T14:06:37.706Z,13.91
2022-10-26T14:10:42.285Z,13.89
2022-10-26T14:14:44.064Z,13.86
2022-10-26T14:18:48.643Z,13.73
2022-10-26T14:22:50.673Z,13.71
2022-10-26T14:26:52.633Z,13.45
2022-10-26T14:30:54.725Z,13.33
2022-10-26T14:34:57.002Z,13.21
2022-10-26T14:39:07.006Z,13.04
2022-10-26T14:43:21.287Z,12.87
2022-10-26T14:47:28.537Z,12.72
2022-10-26T14:51:35.602Z,12.60
2022-10-26T14:55:48.681Z,12.20
2022-10-26T15:00:01.107Z,12.25
2022-10-26T15:04:07.510Z,12.13
2022-10-26T15:08:52.216Z,12.09
2022-10-26T15:12:57.880Z,12.01
2022-10-26T15:17:00.668Z,11.81
2022-10-26T15:21:02.810Z,11.43
2022-10-26T15:25:06.227Z,11.22
2022-10-26T15:29:41.557Z,10.93
2022-10-26T15:34:03.577Z,10.81
2022-10-26T15:38:05.324Z,10.76
2022-10-26T15:42:13.607Z,10.79
2022-10-26T15:46:16.005Z,10.82
2022-10-26T15:50:23.225Z,10.71
2022-10-26T15:54:25.034Z,10.48
2022-10-26T15:58:29.583Z,10.06
2022-10-26T16:02:31.344Z,9.91
2022-10-26T16:06:36.349Z,9.73
2022-10-26T16:10:38.320Z,9.55
2022-10-26T16:15:04.971Z,9.58
2022-10-26T16:19:25.364Z,9.50
2022-10-26T16:23:24.019Z,9.30
2022-10-26T16:27:25.779Z,9.02
2022-10-26T16:31:27.669Z,9.02
2022-10-26T16:35:29.369Z,8.82
2022-10-26T16:39:31.228Z,8.74
2022-10-26T16:43:37.687Z,8.62
2022-10-26T16:47:40.278Z,8.65
2022-10-26T16:51:41.995Z,8.44
2022-10-26T16:55:44.335Z,8.30
2022-10-26T16:59:46.272Z,8.19
2022-10-26T17:03:49.717Z,8.30
2022-10-26T17:07:51.632Z,8.17
2022-10-26T17:11:57.172Z,8.04
2022-10-26T17:16:06.895Z,8.02
2022-10-26T17:20:09.437Z,7.90
2022-10-26T17:24:13.577Z,7.85
2022-10-26T17:28:15.451Z,7.87
2022-10-26T17:32:17.116Z,7.83
2022-10-26T17:36:21.263Z,7.82
2022-10-26T17:40:23.048Z,7.84
2022-10-26T17:44:24.903Z,7.62
2022-10-26T17:48:27.710Z,7.48
2022-10-26T17:52:29.722Z,7.53
2022-10-26T17:56:33.273Z,7.52
2022-10-26T18:00:35.238Z,7.51
2022-10-26T18:04:36.908Z,7.55
2022-10-26T18:08:39.676Z,7.51
2022-10-26T18:12:41.317Z,7.44
2022-10-26T18:16:43.177Z,7.41
2022-10-26T18:20:44.835Z,7.31
2022-10-26T18:24:46.736Z,7.24
2022-10-26T18:28:49.003Z,7.23
2022-10-26T18:32:51.939Z,7.17
2022-10-26T18:36:54.187Z,7.06
2022-10-26T18:40:56.476Z,7.07
2022-10-26T18:45:01.240Z,7.08
2022-10-26T18:49:05.267Z,6.97
2022-10-26T18:53:12.618Z,6.97
2022-10-26T18:57:14.513Z,6.87
2022-10-26T19:01:18.725Z,6.83
2022-10-26T19:05:20.734Z,6.80
2022-10-26T19:09:22.463Z,6.70
2022-10-26T19:13:24.483Z,6.64
2022-10-26T19:17:26.180Z,6.51
2022-10-26T19:21:29.600Z,6.57
2022-10-26T19:25:31.243Z,6.47
2022-10-26T19:29:33.110Z,6.51
2022-10-26T19:33:34.940Z,6.48
2022-10-26T19:37:36.914Z,6.52
2022-10-26T19:41:38.595Z,6.40
2022-10-26T19:45:41.106Z,6.57
2022-10-26T19:49:42.931Z,6.58
2022-10-26T19:53:45.150Z,6.68
2022-10-26T19:57:46.831Z,6.90
2022-10-26T20:01:48.900Z,7.09
2022-10-26T20:05:50.677Z,7.27
2022-10-26T20:09:52.511Z,7.44
2022-10-26T20:13:56.301Z,7.55
2022-10-26T20:17:58.623Z,7.74
2022-10-26T20:22:00.253Z,7.84
2022-10-26T20:26:03.329Z,7.96
2022-10-26T20:30:05.423Z,8.02
2022-10-26T20:34:07.322Z,8.09
2022-10-26T20:38:16.753Z,8.21
2022-10-26T20:42:26.731Z,8.15
2022-10-26T20:46:29.212Z,8.11
2022-10-26T20:50:31.608Z,7.96
2022-10-26T20:54:51.999Z,7.75
2022-10-26T20:58:58.871Z,7.53
2022-10-26T21:03:00.720Z,7.55
2022-10-26T21:07:02.629Z,7.53
2022-10-26T21:11:04.340Z,7.51
2022-10-26T21:15:06.937Z,7.48
2022-10-26T21:19:08.672Z,7.44
2022-10-26T21:23:10.557Z,7.44
2022-10-26T21:27:12.177Z,7.39
2022-10-26T21:31:16.502Z,7.26
2022-10-26T21:35:18.332Z,7.15
2022-10-26T21:39:20.201Z,7.11
2022-10-26T21:43:21.933Z,7.06
2022-10-26T21:47:23.784Z,7.10
2022-10-26T21:51:25.564Z,7.08
2022-10-26T21:55:27.422Z,7.10
2022-10-26T21:59:29.021Z,7.04
2022-10-26T22:03:31.192Z,7.16
2022-10-26T22:07:32.950Z,7.14
2022-10-26T22:11:34.842Z,7.19
2022-10-26T22:15:37.031Z,7.14
2022-10-26T22:19:38.981Z,7.22
2022-10-26T22:23:41.960Z,7.28
2022-10-26T22:27:43.749Z,7.27
2022-10-26T22:31:45.350Z,7.30
2022-10-26T22:35:47.110Z,7.35
2022-10-26T22:39:49.013Z,7.29
2022-10-26T22:43:51.147Z,7.25
2022-10-26T22:47:52.760Z,7.28
2022-10-26T22:51:54.760Z,7.16
2022-10-26T22:55:56.617Z,7.30
2022-10-26T22:59:58.476Z,7.24
2022-10-26T23:04:00.403Z,7.20
2022-10-26T23:08:03.867Z,7.28
2022-10-26T23:12:05.665Z,7.28
2022-10-26T23:16:20.493Z,7.30
2022-10-26T23:20:22.102Z,7.20
2022-10-26T23:24:23.905Z,7.19
2022-10-26T23:28:25.647Z,7.22
2022-10-26T23:32:27.553Z,7.13
2022-10-26T23:36:29.151Z,7.18
2022-10-26T23:40:31.071Z,7.05
2022-10-26T23:44:32.703Z,7.10
2022-10-26T23:48:34.552Z,7.04
2022-10-26T23:52:36.339Z,6.97
2022-10-26T23:56:38.178Z,6.93
